SBPK/PET METAR and TAF weather

Enter ICAO airport designator
Station Type Date Time Source
SBPK METAR 2022/06/27 00:00 UTC NOAA

SBPK 270000Z 00000KT 6000 NSC 07/04 Q1023


Station Type Date Time Source
SBPK Decoded METAR 2022/06/27 00:00 UTC NOAA

Pelotas, Brazil (SBPK) 31-52S 052-21W 13M
Jun 26, 2022 - 08:00 PM EDT / 2022.06.27 0000 UTC
Wind: Calm:0
Visibility: 3 mile(s):0
Temperature: 44 F (7 C)
Dew Point: 39 F (4 C)
Relative Humidity: 81%
Pressure (altimeter): 30.21 in. Hg (1023 hPa)
ob: SBPK 270000Z 00000KT 6000 NSC 07/04 Q1023
cycle: 0

Station Type Date Time Source
SBPK TAF 2022/06/27 06:08 UTC NOAA

TAF SBPK 270300Z 2706/2806 24005KT 8000 NSC TN07/2706Z TX14/2718Z
BECMG 2711/2713 11005KT 9999 FEW030
BECMG 2718/2720 BKN020
BECMG 2800/2802 5000 RA BR OVC010
RMK PDW

Example: see airport list